createdAt,value
2022-09-13T00:02:21.394Z,7.91
2022-09-13T00:05:02.842Z,7.91
2022-09-13T00:07:38.017Z,7.85
2022-09-13T00:10:10.643Z,7.86
2022-09-13T00:12:43.695Z,7.85
2022-09-13T00:15:23.263Z,7.81
2022-09-13T00:17:59.436Z,7.89
2022-09-13T00:20:37.547Z,7.83
2022-09-13T00:23:20.072Z,7.81
2022-09-13T00:26:03.891Z,7.76
2022-09-13T00:28:46.606Z,7.75
2022-09-13T00:31:31.614Z,7.79
2022-09-13T00:34:07.215Z,7.73
2022-09-13T00:36:42.725Z,7.71
2022-09-13T00:39:23.248Z,7.67
2022-09-13T00:41:58.913Z,7.66
2022-09-13T00:45:00.341Z,7.62
2022-09-13T00:47:41.601Z,7.67
2022-09-13T00:50:39.399Z,7.60
2022-09-13T00:53:18.356Z,7.56
2022-09-13T00:56:09.642Z,7.57
2022-09-13T00:58:58.725Z,7.55
2022-09-13T01:01:51.307Z,7.64
2022-09-13T01:04:26.724Z,7.64
2022-09-13T01:07:02.479Z,7.65
2022-09-13T01:09:40.631Z,7.59
2022-09-13T01:12:28.087Z,7.53
2022-09-13T01:15:08.256Z,7.49
2022-09-13T01:17:58.226Z,7.51
2022-09-13T01:21:02.239Z,7.38
2022-09-13T01:23:56.245Z,7.36
2022-09-13T01:26:57.542Z,7.37
2022-09-13T01:30:02.781Z,7.36
2022-09-13T01:33:00.749Z,7.28
2022-09-13T01:35:49.740Z,7.24
2022-09-13T01:38:57.895Z,7.11
2022-09-13T01:41:56.961Z,7.13
2022-09-13T01:44:48.740Z,7.13
2022-09-13T01:47:35.262Z,7.07
2022-09-13T01:50:43.161Z,7.02
2022-09-13T01:53:40.031Z,7.07
2022-09-13T01:56:21.048Z,7.05
2022-09-13T01:59:02.298Z,6.96
2022-09-13T02:01:46.096Z,6.95
2022-09-13T02:04:27.972Z,6.95
2022-09-13T02:07:14.417Z,6.91
2022-09-13T02:09:53.387Z,6.88
2022-09-13T02:12:29.067Z,6.88
2022-09-13T02:15:10.010Z,6.84
2022-09-13T02:18:11.210Z,6.79
2022-09-13T02:20:49.709Z,6.79
2022-09-13T02:23:53.630Z,6.72
2022-09-13T02:26:28.534Z,6.81
2022-09-13T02:29:10.709Z,6.66
2022-09-13T02:32:04.326Z,6.62
2022-09-13T02:34:53.500Z,6.62
2022-09-13T02:37:32.235Z,6.59
2022-09-13T02:40:15.818Z,6.59
2022-09-13T02:43:16.626Z,6.49
2022-09-13T02:46:24.583Z,6.36
2022-09-13T02:49:07.379Z,6.42
2022-09-13T02:52:22.111Z,6.39
2022-09-13T02:55:10.903Z,6.35
2022-09-13T02:58:07.483Z,6.36
2022-09-13T03:00:43.506Z,6.41
2022-09-13T03:03:16.886Z,6.38
2022-09-13T03:05:51.988Z,6.36
2022-09-13T03:08:23.488Z,6.33
2022-09-13T03:11:13.280Z,6.30
2022-09-13T03:14:15.830Z,6.24
2022-09-13T03:17:27.371Z,6.25
2022-09-13T03:20:29.930Z,6.26
2022-09-13T03:23:20.714Z,6.23
2022-09-13T03:26:17.583Z,6.30
2022-09-13T03:29:22.997Z,6.21
2022-09-13T03:32:20.528Z,6.19
2022-09-13T03:35:00.602Z,6.18
2022-09-13T03:38:24.427Z,6.13
2022-09-13T03:41:23.015Z,6.13
2022-09-13T03:44:14.270Z,6.17
2022-09-13T03:46:57.521Z,6.20
2022-09-13T03:49:34.183Z,6.19
2022-09-13T03:52:10.005Z,6.21
2022-09-13T03:54:42.941Z,6.30
2022-09-13T03:57:22.347Z,6.25
2022-09-13T03:59:57.451Z,6.24
2022-09-13T04:02:45.584Z,6.27
2022-09-13T04:05:18.450Z,6.26
2022-09-13T04:07:56.694Z,6.18
2022-09-13T04:10:34.016Z,6.11
2022-09-13T04:13:09.562Z,6.09
2022-09-13T04:15:42.988Z,6.05
2022-09-13T04:21:07.841Z,6.08
2022-09-13T04:23:52.956Z,6.10
2022-09-13T04:26:34.008Z,6.10
2022-09-13T04:29:09.073Z,6.06
2022-09-13T04:31:53.757Z,6.07
2022-09-13T04:34:29.056Z,6.11
2022-09-13T04:37:10.225Z,6.07
2022-09-13T04:39:40.927Z,6.09
2022-09-13T04:42:27.786Z,6.00
2022-09-13T04:45:00.796Z,6.04
2022-09-13T04:47:36.200Z,6.06
2022-09-13T04:50:11.859Z,6.11
2022-09-13T04:53:04.458Z,6.11
2022-09-13T04:55:37.105Z,6.15
2022-09-13T04:58:15.498Z,6.20
2022-09-13T05:00:53.940Z,6.29
2022-09-13T05:03:38.971Z,6.30
2022-09-13T05:06:20.714Z,6.38
2022-09-13T05:09:01.900Z,6.45
2022-09-13T05:11:33.840Z,6.54
2022-09-13T05:14:14.930Z,6.62
2022-09-13T05:16:55.100Z,6.71
2022-09-13T05:19:38.280Z,6.81
2022-09-13T05:22:13.856Z,6.92
2022-09-13T05:24:49.806Z,7.10
2022-09-13T05:27:36.185Z,7.31
2022-09-13T05:30:10.623Z,7.50
2022-09-13T05:32:52.140Z,7.70
2022-09-13T05:35:31.519Z,7.97
2022-09-13T05:38:06.870Z,8.30
2022-09-13T05:41:09.191Z,8.64
2022-09-13T05:43:44.538Z,9.03
2022-09-13T05:46:19.823Z,9.40
2022-09-13T05:49:01.310Z,9.80
2022-09-13T05:51:39.522Z,10.20
2022-09-13T05:54:12.779Z,10.53
2022-09-13T05:56:55.593Z,10.95
2022-09-13T05:59:34.117Z,11.21
2022-09-13T06:02:10.636Z,11.53
2022-09-13T06:04:53.772Z,11.81
2022-09-13T06:07:31.737Z,12.17
2022-09-13T06:10:15.093Z,12.50
2022-09-13T06:12:47.808Z,12.81
2022-09-13T06:15:20.380Z,13.07
2022-09-13T06:17:58.819Z,13.34
2022-09-13T06:20:36.224Z,13.74
2022-09-13T06:23:08.989Z,14.02
2022-09-13T06:25:48.116Z,14.26
2022-09-13T06:28:26.220Z,14.40
2022-09-13T06:31:17.026Z,14.61
2022-09-13T06:33:50.982Z,14.81
2022-09-13T06:36:31.819Z,14.98
2022-09-13T06:39:08.039Z,15.10
2022-09-13T06:41:45.972Z,15.34
2022-09-13T06:44:21.238Z,15.63
2022-09-13T06:46:49.138Z,15.92
2022-09-13T06:49:24.406Z,15.77
2022-09-13T06:52:03.106Z,16.20
2022-09-13T06:54:46.187Z,16.45
2022-09-13T06:57:18.402Z,16.61
2022-09-13T06:59:58.090Z,16.69
2022-09-13T07:02:38.991Z,16.85
2022-09-13T07:05:14.869Z,17.06
2022-09-13T07:08:07.690Z,17.08
2022-09-13T07:10:35.248Z,17.22
2022-09-13T07:13:10.270Z,17.49
2022-09-13T07:15:42.933Z,17.41
2022-09-13T07:18:18.464Z,17.45
2022-09-13T07:21:03.476Z,17.46
2022-09-13T07:23:42.778Z,17.71
2022-09-13T07:26:19.057Z,17.78
2022-09-13T07:28:53.879Z,18.02
2022-09-13T07:31:36.264Z,17.82
2022-09-13T07:34:17.915Z,17.99
2022-09-13T07:36:55.870Z,18.04
2022-09-13T07:39:34.071Z,18.00
2022-09-13T07:42:14.947Z,18.12
2022-09-13T07:44:56.176Z,18.26
2022-09-13T07:47:37.509Z,18.37
2022-09-13T07:50:12.848Z,18.42
2022-09-13T07:52:48.737Z,18.45
2022-09-13T07:55:29.502Z,18.36
2022-09-13T07:58:05.177Z,18.50
2022-09-13T08:00:37.599Z,18.71
2022-09-13T08:03:13.909Z,18.89
2022-09-13T08:05:50.031Z,18.98
2022-09-13T08:08:20.180Z,19.08
2022-09-13T08:10:49.449Z,19.26
2022-09-13T08:13:42.046Z,19.27
2022-09-13T08:16:15.591Z,19.42
2022-09-13T08:19:07.692Z,19.54
2022-09-13T08:21:41.561Z,19.70
2022-09-13T08:24:14.483Z,19.70
2022-09-13T08:26:51.782Z,19.72
2022-09-13T08:29:22.878Z,19.89
2022-09-13T08:31:53.511Z,19.80
2022-09-13T08:34:21.482Z,19.83
2022-09-13T08:36:59.748Z,19.75
2022-09-13T08:39:36.200Z,19.80
2022-09-13T08:42:30.595Z,19.87
2022-09-13T08:44:59.930Z,19.70
2022-09-13T08:47:59.620Z,19.70
2022-09-13T08:50:35.537Z,19.83
2022-09-13T08:53:30.018Z,19.93
2022-09-13T08:56:12.011Z,19.82
2022-09-13T08:59:06.982Z,19.89
2022-09-13T09:01:52.909Z,19.91
2022-09-13T09:04:41.602Z,20.08
2022-09-13T09:07:21.539Z,20.16
2022-09-13T09:10:26.488Z,20.22
2022-09-13T09:13:26.461Z,20.35
2022-09-13T09:16:21.473Z,20.51
2022-09-13T09:18:54.124Z,20.68
2022-09-13T09:21:27.230Z,20.81
2022-09-13T09:23:55.790Z,20.89
2022-09-13T09:26:32.823Z,20.91
2022-09-13T09:29:08.662Z,20.87
2022-09-13T09:32:11.041Z,21.06
2022-09-13T09:34:57.305Z,21.24
2022-09-13T09:37:31.776Z,21.16
2022-09-13T09:40:09.578Z,21.03
2022-09-13T09:42:49.727Z,20.97
2022-09-13T09:45:25.686Z,21.03
2022-09-13T09:48:08.752Z,21.07
2022-09-13T09:50:46.126Z,21.18
2022-09-13T09:53:27.165Z,21.21
2022-09-13T09:56:23.938Z,21.26
2022-09-13T09:58:53.335Z,21.38
2022-09-13T10:01:28.375Z,21.46
2022-09-13T10:04:10.565Z,21.59
2022-09-13T10:06:47.172Z,21.59
2022-09-13T10:09:22.700Z,21.68
2022-09-13T10:12:03.875Z,21.90
2022-09-13T10:14:46.017Z,22.12
2022-09-13T10:17:18.838Z,21.56
2022-09-13T10:20:06.504Z,21.67
2022-09-13T10:22:34.739Z,21.73
2022-09-13T10:25:39.171Z,21.62
2022-09-13T10:28:18.725Z,21.62
2022-09-13T10:30:56.679Z,21.50
2022-09-13T10:33:48.834Z,21.74
2022-09-13T10:36:50.637Z,21.92
2022-09-13T10:39:21.346Z,21.95
2022-09-13T10:42:14.168Z,22.10
2022-09-13T10:44:55.476Z,22.13
2022-09-13T10:47:38.662Z,22.03
2022-09-13T10:50:26.049Z,22.05
2022-09-13T10:53:09.230Z,22.04
2022-09-13T10:55:44.095Z,22.26
2022-09-13T10:58:26.989Z,22.24
2022-09-13T11:01:22.852Z,22.03
2022-09-13T11:03:59.914Z,21.80
2022-09-13T11:06:58.475Z,21.79
2022-09-13T11:10:01.250Z,21.96
2022-09-13T11:12:53.777Z,21.99
2022-09-13T11:15:50.122Z,22.01
2022-09-13T11:18:32.038Z,21.80
2022-09-13T11:21:17.090Z,21.69
2022-09-13T11:23:58.291Z,22.01
2022-09-13T11:26:55.405Z,22.20
2022-09-13T11:30:00.292Z,22.42
2022-09-13T11:32:58.239Z,22.42
2022-09-13T11:35:45.279Z,22.28
2022-09-13T11:38:41.997Z,22.35
2022-09-13T11:41:31.789Z,22.39
2022-09-13T11:44:33.216Z,22.76
2022-09-13T11:47:21.473Z,22.81
2022-09-13T11:50:31.370Z,22.56
2022-09-13T11:53:30.089Z,22.92
2022-09-13T11:56:08.559Z,23.15
2022-09-13T11:58:49.238Z,23.22
2022-09-13T12:01:25.604Z,23.36
2022-09-13T12:04:03.548Z,23.47
2022-09-13T12:06:44.997Z,23.35
2022-09-13T12:09:22.368Z,23.29
2022-09-13T12:12:14.689Z,23.11
2022-09-13T12:14:59.065Z,23.02
2022-09-13T12:18:14.155Z,23.15
2022-09-13T12:21:59.254Z,23.09
2022-09-13T12:24:59.397Z,22.94
2022-09-13T12:27:52.754Z,22.95
2022-09-13T12:30:28.265Z,23.12
2022-09-13T12:33:00.762Z,23.20
2022-09-13T12:35:35.511Z,23.21
2022-09-13T12:38:39.438Z,23.38
2022-09-13T12:41:26.569Z,23.52
2022-09-13T12:44:36.771Z,23.41
2022-09-13T12:47:59.678Z,23.68
2022-09-13T12:50:43.926Z,23.69
2022-09-13T12:53:39.126Z,23.93
2022-09-13T12:56:42.017Z,24.16
2022-09-13T12:59:18.923Z,24.47
2022-09-13T13:01:54.659Z,24.57
2022-09-13T13:04:46.504Z,24.67
2022-09-13T13:07:49.809Z,24.86
2022-09-13T13:10:38.902Z,24.91
2022-09-13T13:13:25.429Z,24.67
2022-09-13T13:16:26.721Z,24.50
2022-09-13T13:19:28.968Z,24.56
2022-09-13T13:22:36.801Z,24.74
2022-09-13T13:25:39.370Z,24.92
2022-09-13T13:28:46.919Z,25.31
2022-09-13T13:34:51.792Z,25.63
2022-09-13T13:37:27.464Z,25.67
2022-09-13T13:40:24.031Z,25.62
2022-09-13T13:43:33.971Z,25.51
2022-09-13T13:46:28.030Z,25.63
2022-09-13T13:49:36.382Z,25.47
2022-09-13T13:52:20.480Z,25.18
2022-09-13T13:55:26.741Z,25.06
2022-09-13T13:58:25.010Z,24.61
2022-09-13T14:00:58.771Z,24.87
2022-09-13T14:03:44.385Z,25.48
2022-09-13T14:06:34.587Z,25.25
2022-09-13T14:09:22.160Z,24.73
2022-09-13T14:12:13.692Z,24.15
2022-09-13T14:15:06.462Z,24.08
2022-09-13T14:18:03.434Z,24.45
2022-09-13T14:21:14.381Z,24.62
2022-09-13T14:24:10.988Z,24.83
2022-09-13T14:26:43.488Z,24.66
2022-09-13T14:29:26.699Z,24.66
2022-09-13T14:32:07.560Z,24.76
2022-09-13T14:34:53.886Z,24.82
2022-09-13T14:37:31.227Z,24.78
2022-09-13T14:40:20.317Z,24.63
2022-09-13T14:43:14.761Z,24.54
2022-09-13T14:45:57.845Z,24.27
2022-09-13T14:48:57.353Z,24.42
2022-09-13T14:51:47.794Z,24.42
2022-09-13T14:54:45.971Z,24.15
2022-09-13T14:57:36.868Z,24.23
2022-09-13T15:00:16.767Z,24.03
2022-09-13T15:02:51.586Z,24.13
2022-09-13T15:05:33.549Z,24.47
2022-09-13T15:08:03.622Z,24.72
2022-09-13T15:10:44.226Z,24.47
2022-09-13T15:13:16.842Z,24.62
2022-09-13T15:15:54.020Z,24.58
2022-09-13T15:18:35.798Z,24.42
2022-09-13T15:21:23.783Z,24.38
2022-09-13T15:23:57.167Z,24.45
2022-09-13T15:26:34.798Z,24.59
2022-09-13T15:29:07.858Z,24.34
2022-09-13T15:31:46.302Z,23.86
2022-09-13T15:34:20.510Z,23.39
2022-09-13T15:37:05.146Z,23.02
2022-09-13T15:39:49.863Z,22.78
2022-09-13T15:42:35.719Z,22.71
2022-09-13T15:45:02.628Z,23.27
2022-09-13T15:47:37.771Z,23.30
2022-09-13T15:50:22.833Z,23.06
2022-09-13T15:52:55.504Z,22.74
2022-09-13T15:55:29.510Z,22.36
2022-09-13T15:58:04.938Z,22.01
2022-09-13T16:00:42.973Z,21.71
2022-09-13T16:03:14.351Z,21.55
2022-09-13T16:05:52.034Z,21.41
2022-09-13T16:08:25.775Z,21.30
2022-09-13T16:11:02.507Z,21.12
2022-09-13T16:13:42.977Z,21.01
2022-09-13T16:16:29.927Z,20.84
2022-09-13T16:19:20.332Z,20.86
2022-09-13T16:21:50.556Z,21.62
2022-09-13T16:24:22.340Z,21.90
2022-09-13T16:26:52.469Z,22.92
2022-09-13T16:29:33.002Z,23.93
2022-09-13T16:32:09.348Z,24.30
2022-09-13T16:34:39.829Z,23.80
2022-09-13T16:37:06.940Z,22.94
2022-09-13T16:39:42.185Z,22.10
2022-09-13T16:42:20.840Z,21.29
2022-09-13T16:45:06.404Z,20.69
2022-09-13T16:47:36.265Z,20.20
2022-09-13T16:50:14.542Z,19.79
2022-09-13T16:52:54.634Z,19.49
2022-09-13T16:55:33.124Z,19.19
2022-09-13T16:58:06.670Z,18.93
2022-09-13T17:03:29.181Z,18.43
2022-09-13T17:06:03.342Z,18.14
2022-09-13T17:08:36.784Z,17.95
2022-09-13T17:11:12.485Z,17.73
2022-09-13T17:13:48.187Z,17.46
2022-09-13T17:16:44.974Z,17.32
2022-09-13T17:19:24.154Z,17.22
2022-09-13T17:22:03.264Z,17.05
2022-09-13T17:24:43.854Z,16.81
2022-09-13T17:27:12.319Z,16.66
2022-09-13T17:29:58.544Z,16.60
2022-09-13T17:32:38.528Z,16.46
2022-09-13T17:35:11.344Z,16.36
2022-09-13T17:37:48.994Z,16.24
2022-09-13T17:40:22.547Z,16.15
2022-09-13T17:43:01.109Z,16.05
2022-09-13T17:45:41.412Z,15.81
2022-09-13T17:48:18.415Z,15.79
2022-09-13T17:50:54.965Z,15.77
2022-09-13T17:53:28.459Z,15.62
2022-09-13T17:56:02.639Z,15.54
2022-09-13T17:58:32.752Z,15.52
2022-09-13T18:01:08.089Z,15.44
2022-09-13T18:03:40.904Z,15.37
2022-09-13T18:06:15.026Z,15.30
2022-09-13T18:08:50.056Z,15.25
2022-09-13T18:11:34.335Z,15.24
2022-09-13T18:14:16.037Z,15.22
2022-09-13T18:19:50.457Z,15.17
2022-09-13T18:22:40.528Z,15.17
2022-09-13T18:25:23.572Z,15.09
2022-09-13T18:27:51.813Z,15.02
2022-09-13T18:30:30.688Z,15.03
2022-09-13T18:33:11.491Z,15.02
2022-09-13T18:35:58.642Z,14.90
2022-09-13T18:38:34.269Z,14.89
2022-09-13T18:41:35.357Z,14.84
2022-09-13T18:44:07.696Z,14.82
2022-09-13T18:46:54.313Z,14.85
2022-09-13T18:49:34.257Z,14.85
2022-09-13T18:52:07.204Z,14.83
2022-09-13T18:54:43.504Z,14.80
2022-09-13T18:57:23.264Z,14.77
2022-09-13T18:59:59.667Z,14.77
2022-09-13T19:02:56.608Z,14.81
2022-09-13T19:05:43.589Z,14.79
2022-09-13T19:08:34.178Z,14.80
2022-09-13T19:11:35.234Z,14.81
2022-09-13T19:14:07.242Z,14.95
2022-09-13T19:16:40.110Z,14.81
2022-09-13T19:19:13.033Z,14.86
2022-09-13T19:21:48.829Z,14.80
2022-09-13T19:24:23.938Z,14.82
2022-09-13T19:27:03.610Z,14.83
2022-09-13T19:29:40.178Z,14.79
2022-09-13T19:32:15.534Z,14.79
2022-09-13T19:34:51.310Z,14.83
2022-09-13T19:37:24.264Z,14.81
2022-09-13T19:40:00.544Z,14.81
2022-09-13T19:42:40.755Z,14.82
2022-09-13T19:45:16.360Z,14.82
2022-09-13T19:48:34.879Z,14.79
2022-09-13T19:51:04.807Z,14.77
2022-09-13T19:53:56.859Z,14.83
2022-09-13T19:56:33.164Z,14.83
2022-09-13T19:59:09.627Z,14.85
2022-09-13T20:01:59.054Z,14.82
2022-09-13T20:04:27.447Z,14.81
2022-09-13T20:07:15.322Z,14.79
2022-09-13T20:09:47.163Z,14.84
2022-09-13T20:12:26.027Z,14.87
2022-09-13T20:15:02.474Z,14.87
2022-09-13T20:17:30.606Z,14.87
2022-09-13T20:20:03.631Z,14.88
2022-09-13T20:22:39.449Z,14.81
2022-09-13T20:25:14.507Z,14.84
2022-09-13T20:27:50.149Z,14.85
2022-09-13T20:30:25.535Z,14.86
2022-09-13T20:33:07.653Z,14.83
2022-09-13T20:35:47.187Z,14.81
2022-09-13T20:38:21.188Z,14.85
2022-09-13T20:40:56.327Z,14.90
2022-09-13T20:43:31.816Z,14.94
2022-09-13T20:46:04.944Z,15.04
2022-09-13T20:48:37.674Z,15.10
2022-09-13T20:51:14.805Z,15.11
2022-09-13T20:53:58.135Z,15.14
2022-09-13T20:56:31.476Z,15.19
2022-09-13T20:59:10.520Z,15.15
2022-09-13T21:04:22.571Z,15.06
2022-09-13T21:07:22.302Z,15.05
2022-09-13T21:09:49.372Z,15.00
2022-09-13T21:12:17.760Z,15.00
2022-09-13T21:14:50.166Z,14.97
2022-09-13T21:17:28.275Z,14.97
2022-09-13T21:20:12.662Z,14.94
2022-09-13T21:23:03.538Z,14.92
2022-09-13T21:25:38.561Z,14.94
2022-09-13T21:28:09.624Z,14.90
2022-09-13T21:31:02.449Z,14.92
2022-09-13T21:33:37.621Z,14.92
2022-09-13T21:36:22.488Z,15.01
2022-09-13T21:38:51.322Z,15.00
2022-09-13T21:44:38.123Z,15.01
2022-09-13T21:47:18.276Z,15.04
2022-09-13T21:49:51.918Z,15.03
2022-09-13T21:52:27.645Z,15.03
2022-09-13T21:55:05.585Z,15.06
2022-09-13T21:57:35.495Z,15.06
2022-09-13T22:00:02.995Z,15.10
2022-09-13T22:02:48.866Z,15.13
2022-09-13T22:05:29.832Z,15.10
2022-09-13T22:07:59.496Z,15.20
2022-09-13T22:10:36.017Z,15.27
2022-09-13T22:13:16.368Z,15.24
2022-09-13T22:15:46.348Z,15.21
2022-09-13T22:18:27.252Z,15.15
2022-09-13T22:20:54.242Z,15.10
2022-09-13T22:23:32.018Z,15.10
2022-09-13T22:26:17.577Z,15.12
2022-09-13T22:28:58.074Z,15.14
2022-09-13T22:31:37.358Z,15.16
2022-09-13T22:34:11.776Z,15.12
2022-09-13T22:36:52.772Z,15.13
2022-09-13T22:39:40.183Z,15.11
2022-09-13T22:42:16.771Z,15.11
2022-09-13T22:44:49.656Z,15.22
2022-09-13T22:47:22.157Z,15.29
2022-09-13T22:49:55.450Z,15.18
2022-09-13T22:52:25.425Z,15.03
2022-09-13T22:54:58.023Z,14.97
2022-09-13T22:57:24.964Z,14.90
2022-09-13T23:00:03.252Z,14.79
2022-09-13T23:02:36.569Z,14.70
2022-09-13T23:05:05.433Z,14.74
2022-09-13T23:07:34.965Z,14.68
2022-09-13T23:10:08.560Z,14.67
2022-09-13T23:12:44.145Z,14.54
2022-09-13T23:15:12.818Z,14.56
2022-09-13T23:18:00.150Z,14.45
2022-09-13T23:20:39.443Z,14.47
2022-09-13T23:23:14.340Z,14.51
2022-09-13T23:25:52.285Z,14.48
2022-09-13T23:28:31.955Z,14.44
2022-09-13T23:31:23.887Z,14.45
2022-09-13T23:33:58.688Z,14.32
2022-09-13T23:36:39.488Z,14.29
2022-09-13T23:39:25.753Z,14.25
2022-09-13T23:42:01.455Z,14.28
2022-09-13T23:44:34.241Z,14.20
2022-09-13T23:47:06.722Z,14.23
2022-09-13T23:49:40.882Z,14.16
2022-09-13T23:52:26.747Z,14.07
2022-09-13T23:55:04.134Z,13.98
2022-09-13T23:57:37.266Z,13.95
